Time;durP1;ratioP1;P1;durP2;ratioP2;P2;SDS_P1;SDS_P2;PMS_P1;PMS_P2;Temp;Humidity;BMP_temperature;BMP_pressure;BME280_temperature;BME280_humidity;BME280_pressure;Samples;Min_cycle;Max_cycle;Signal;HPM_P1;HPM_P2
2022/01/21 00:01:15;;;;;;;0.00;0.00;;;;;;;;;;5070499;28;20044;-82
2022/01/21 00:03:41;;;;;;;0.10;0.10;;;;;;;;;;5051228;28;20063;-81
2022/01/21 00:06:07;;;;;;;0.85;0.85;;;;;;;;;;5060880;28;20108;-80
2022/01/21 00:08:44;;;;;;;0.70;0.70;;;;;;;;;;5061299;28;20121;-81
2022/01/21 00:11:10;;;;;;;0.10;0.10;;;;;;;;;;5056422;28;20048;-81
2022/01/21 00:13:37;;;;;;;1.00;0.90;;;;;;;;;;5045483;28;20052;-81
2022/01/21 00:16:03;;;;;;;0.20;0.20;;;;;;;;;;5047788;28;20043;-81
2022/01/21 00:18:29;;;;;;;0.00;0.00;;;;;;;;;;5046548;28;20029;-80
2022/01/21 00:31:54;;;;;;;0.68;0.52;;;;;;;;;;5058379;28;20452;-81
2022/01/21 00:34:20;;;;;;;0.47;0.47;;;;;;;;;;5058672;28;20829;-81
2022/01/21 00:36:46;;;;;;;0.97;0.97;;;;;;;;;;5060291;28;20109;-82
2022/01/21 00:39:12;;;;;;;0.10;0.10;;;;;;;;;;5051934;28;20417;-80
2022/01/21 00:41:47;;;;;;;0.10;0.10;;;;;;;;;;5048886;28;20460;-81
2022/01/21 00:44:13;;;;;;;0.10;0.10;;;;;;;;;;5047517;28;20032;-81
2022/01/21 00:46:39;;;;;;;0.67;0.67;;;;;;;;;;5045563;28;20032;-81
2022/01/21 00:49:05;;;;;;;0.10;0.10;;;;;;;;;;5048031;28;20044;-81
2022/01/21 00:51:31;;;;;;;1.17;1.17;;;;;;;;;;5050262;28;20032;-81
2022/01/21 00:53:57;;;;;;;0.00;0.00;;;;;;;;;;5048092;28;20299;-81
2022/01/21 00:56:23;;;;;;;0.10;0.10;;;;;;;;;;5045038;28;20052;-81
2022/01/21 00:58:49;;;;;;;0.00;0.00;;;;;;;;;;5052566;28;20199;-81
2022/01/21 01:01:15;;;;;;;0.10;0.10;;;;;;;;;;5051709;28;20093;-81
2022/01/21 01:03:41;;;;;;;0.17;0.17;;;;;;;;;;5050467;28;20040;-81
2022/01/21 01:06:07;;;;;;;0.00;0.00;;;;;;;;;;5055466;28;20718;-81
2022/01/21 01:08:33;;;;;;;0.10;0.10;;;;;;;;;;5061884;28;20024;-81
2022/01/21 01:11:29;;;;;;;0.20;0.20;;;;;;;;;;5053209;28;20429;-81
2022/01/21 01:20:00;;;;;;;0.10;0.10;;;;;;;;;;5050279;28;20807;-81
2022/01/21 01:22:05;;;;;;;0.10;0.10;;;;;;;;;;5041238;28;20037;-81
2022/01/21 01:30:01;;;;;;;0.10;0.10;;;;;;;;;;5049530;28;20039;-78
2022/01/21 01:32:29;;;;;;;0.10;0.10;;;;;;;;;;5051862;28;20786;-79
2022/01/21 01:34:55;;;;;;;0.00;0.00;;;;;;;;;;5048843;28;21648;-78
2022/01/21 01:37:36;;;;;;;0.10;0.10;;;;;;;;;;5059143;28;20099;-78
2022/01/21 01:50:47;;;;;;;0.30;0.30;;;;;;;;;;5047949;28;20033;-82
2022/01/21 01:53:15;;;;;;;0.80;0.55;;;;;;;;;;5048766;28;20028;-82
2022/01/21 01:55:41;;;;;;;0.20;0.20;;;;;;;;;;5057342;28;20024;-82
2022/01/21 01:58:07;;;;;;;0.30;0.30;;;;;;;;;;5060795;28;20032;-82
2022/01/21 02:00:33;;;;;;;0.10;0.10;;;;;;;;;;5062845;28;20129;-82
2022/01/21 02:03:10;;;;;;;0.10;0.10;;;;;;;;;;5063124;28;20282;-82
2022/01/21 02:05:36;;;;;;;0.73;0.73;;;;;;;;;;5063384;28;20838;-82
2022/01/21 02:08:02;;;;;;;0.00;0.00;;;;;;;;;;5054943;28;20028;-82
2022/01/21 02:10:28;;;;;;;0.10;0.10;;;;;;;;;;5058208;28;20028;-82
2022/01/21 02:13:04;;;;;;;0.10;0.10;;;;;;;;;;5063423;28;20035;-82
2022/01/21 02:15:33;;;;;;;;;;;;;;;;;;5054905;28;20020;-82
2022/01/21 02:23:29;;;;;;;0.10;0.10;;;;;;;;;;5062768;28;20046;-82
2022/01/21 02:25:55;;;;;;;0.13;0.13;;;;;;;;;;5060491;28;20044;-80
2022/01/21 02:28:21;;;;;;;0.30;0.30;;;;;;;;;;5049448;28;20032;-81
2022/01/21 02:30:57;;;;;;;0.10;0.10;;;;;;;;;;5054103;28;20032;-80
2022/01/21 02:33:24;;;;;;;0.10;0.10;;;;;;;;;;5061823;28;20322;-80
2022/01/21 02:35:50;;;;;;;0.10;0.10;;;;;;;;;;5062547;28;20043;-80
2022/01/21 02:38:16;;;;;;;0.10;0.10;;;;;;;;;;5062755;28;20141;-79
2022/01/21 02:40:43;;;;;;;0.90;0.88;;;;;;;;;;5057846;28;20083;-79
2022/01/21 02:43:09;;;;;;;0.55;0.55;;;;;;;;;;5047836;28;20035;-79
2022/01/21 02:45:37;;;;;;;1.40;0.50;;;;;;;;;;5048674;28;20617;-78
2022/01/21 02:48:06;;;;;;;1.10;1.10;;;;;;;;;;5096827;28;20255;-78
2022/01/21 02:50:32;;;;;;;0.20;0.20;;;;;;;;;;5066375;28;20028;-78
2022/01/21 02:54:04;;;;;;;0.10;0.10;;;;;;;;;;5061894;28;20043;-78
2022/01/21 02:55:44;;;;;;;0.25;0.25;;;;;;;;;;5054099;28;20093;-80
2022/01/21 02:58:10;;;;;;;0.10;0.10;;;;;;;;;;5061588;28;20119;-80
2022/01/21 03:00:37;;;;;;;0.10;0.10;;;;;;;;;;5062429;28;20155;-80
2022/01/21 03:03:04;;;;;;;0.30;0.30;;;;;;;;;;5077717;28;20134;-80
2022/01/21 03:05:31;;;;;;;0.10;0.10;;;;;;;;;;5062625;28;20152;-80
2022/01/21 03:07:57;;;;;;;0.30;0.30;;;;;;;;;;5063693;28;20115;-81
2022/01/21 03:10:23;;;;;;;0.10;0.10;;;;;;;;;;5063034;28;20221;-79
2022/01/21 03:12:49;;;;;;;0.10;0.10;;;;;;;;;;5062187;28;20501;-79
2022/01/21 03:15:15;;;;;;;0.10;0.10;;;;;;;;;;5064311;28;20362;-81
2022/01/21 03:17:41;;;;;;;0.20;0.20;;;;;;;;;;5064688;28;20058;-81
2022/01/21 03:20:07;;;;;;;0.17;0.17;;;;;;;;;;5063095;28;20135;-81
2022/01/21 03:22:33;;;;;;;0.03;0.03;;;;;;;;;;5060835;28;20119;-79
2022/01/21 03:24:59;;;;;;;0.00;0.00;;;;;;;;;;5061315;28;20107;-81
2022/01/21 03:27:26;;;;;;;0.17;0.17;;;;;;;;;;5061936;28;20056;-82
2022/01/21 03:29:52;;;;;;;0.10;0.10;;;;;;;;;;5060750;28;20028;-81
2022/01/21 03:32:18;;;;;;;1.20;0.57;;;;;;;;;;5060752;28;20028;-81
2022/01/21 03:34:44;;;;;;;0.13;0.13;;;;;;;;;;5060091;28;20064;-82
2022/01/21 03:37:10;;;;;;;0.52;0.52;;;;;;;;;;5062406;28;20028;-81
2022/01/21 03:39:36;;;;;;;2.58;2.38;;;;;;;;;;5062481;28;20041;-82
2022/01/21 03:42:02;;;;;;;0.20;0.20;;;;;;;;;;5062035;28;20400;-81
2022/01/21 03:44:28;;;;;;;0.10;0.10;;;;;;;;;;5058574;28;20040;-80
2022/01/21 03:46:54;;;;;;;0.10;0.10;;;;;;;;;;5062016;28;20028;-81
2022/01/21 03:49:20;;;;;;;0.10;0.10;;;;;;;;;;5061455;28;20029;-79
2022/01/21 03:51:46;;;;;;;0.47;0.17;;;;;;;;;;5063512;28;20024;-79
2022/01/21 03:54:12;;;;;;;0.15;0.15;;;;;;;;;;5065534;28;20043;-79
2022/01/21 03:56:39;;;;;;;0.10;0.10;;;;;;;;;;5064285;28;20028;-79
2022/01/21 03:59:05;;;;;;;4.63;2.95;;;;;;;;;;5060783;28;20048;-79
2022/01/21 04:01:31;;;;;;;0.10;0.10;;;;;;;;;;5064264;28;20024;-79
2022/01/21 04:03:58;;;;;;;5.90;2.63;;;;;;;;;;5064963;28;20060;-79
2022/01/21 04:06:24;;;;;;;;;;;;;;;;;;5051001;28;20523;-78
2022/01/21 04:08:51;;;;;;;0.10;0.10;;;;;;;;;;5056763;28;19916;-78
2022/01/21 04:11:17;;;;;;;0.30;0.30;;;;;;;;;;5064841;28;20611;-78
2022/01/21 04:13:45;;;;;;;0.10;0.10;;;;;;;;;;5064937;28;20025;-78
2022/01/21 04:16:11;;;;;;;0.10;0.10;;;;;;;;;;5064901;28;20024;-79
2022/01/21 04:18:37;;;;;;;6.35;0.90;;;;;;;;;;5063799;28;20274;-78
2022/01/21 04:21:03;;;;;;;0.10;0.10;;;;;;;;;;5064878;28;20128;-78
2022/01/21 04:23:29;;;;;;;0.20;0.20;;;;;;;;;;5064580;28;20032;-78
2022/01/21 04:25:55;;;;;;;0.10;0.10;;;;;;;;;;5064826;28;20552;-78
2022/01/21 04:28:21;;;;;;;0.17;0.17;;;;;;;;;;5063213;28;20119;-79
2022/01/21 04:30:47;;;;;;;0.10;0.10;;;;;;;;;;5063163;28;20710;-79
2022/01/21 04:33:13;;;;;;;0.13;0.13;;;;;;;;;;5055524;28;20279;-79
2022/01/21 04:35:40;;;;;;;0.30;0.30;;;;;;;;;;5063349;28;20110;-79
2022/01/21 04:38:09;;;;;;;2.23;1.60;;;;;;;;;;5064469;28;20066;-77
2022/01/21 04:40:41;;;;;;;0.10;0.10;;;;;;;;;;5064348;28;20310;-81
2022/01/21 04:48:37;;;;;;;1.10;0.17;;;;;;;;;;5060475;28;20047;-80
2022/01/21 04:53:39;;;;;;;0.10;0.10;;;;;;;;;;5052475;28;20110;-81
2022/01/21 04:56:05;;;;;;;0.10;0.10;;;;;;;;;;5060579;28;20042;-80
2022/01/21 04:58:31;;;;;;;0.20;0.20;;;;;;;;;;5058058;28;20420;-80
2022/01/21 05:01:02;;;;;;;0.10;0.10;;;;;;;;;;5050857;28;20032;-78
2022/01/21 05:03:28;;;;;;;13.23;1.33;;;;;;;;;;5059775;28;20111;-81
2022/01/21 05:05:55;;;;;;;0.10;0.10;;;;;;;;;;5063577;28;20508;-80
2022/01/21 05:08:26;;;;;;;0.10;0.10;;;;;;;;;;5051787;28;20586;-79
2022/01/21 05:10:53;;;;;;;0.40;0.40;;;;;;;;;;5054945;28;20025;-80
2022/01/21 05:13:24;;;;;;;0.17;0.17;;;;;;;;;;5050115;28;20372;-79
2022/01/21 05:18:28;;;;;;;0.75;0.47;;;;;;;;;;5062132;28;20060;-81
2022/01/21 05:20:54;;;;;;;0.32;0.32;;;;;;;;;;5053280;28;20659;-80
2022/01/21 05:23:20;;;;;;;0.10;0.10;;;;;;;;;;5062483;28;20032;-80
2022/01/21 05:25:46;;;;;;;0.22;0.22;;;;;;;;;;5058762;28;20137;-80
2022/01/21 05:28:13;;;;;;;0.20;0.20;;;;;;;;;;5051347;28;20036;-78
2022/01/21 05:30:39;;;;;;;0.10;0.10;;;;;;;;;;5051750;28;20653;-77
2022/01/21 05:33:05;;;;;;;0.20;0.20;;;;;;;;;;5047160;28;20112;-78
2022/01/21 05:35:31;;;;;;;0.10;0.10;;;;;;;;;;5050648;28;20393;-77
2022/01/21 05:37:57;;;;;;;0.10;0.10;;;;;;;;;;5048556;28;20025;-78
2022/01/21 05:40:24;;;;;;;1.65;1.55;;;;;;;;;;5048615;28;20045;-81
2022/01/21 05:42:50;;;;;;;0.10;0.10;;;;;;;;;;5045213;28;20021;-80
2022/01/21 05:48:01;;;;;;;1.05;1.05;;;;;;;;;;5049756;28;20114;-80
2022/01/21 05:50:27;;;;;;;0.10;0.10;;;;;;;;;;5046905;28;20033;-80
2022/01/21 05:52:55;;;;;;;0.10;0.10;;;;;;;;;;5066957;28;20275;-80
2022/01/21 05:55:21;;;;;;;0.10;0.10;;;;;;;;;;5046621;28;20111;-79
2022/01/21 05:57:47;;;;;;;0.17;0.17;;;;;;;;;;5047827;28;20114;-80
2022/01/21 06:00:14;;;;;;;0.32;0.32;;;;;;;;;;5044810;28;20331;-80
2022/01/21 06:02:40;;;;;;;0.10;0.10;;;;;;;;;;5055208;28;20155;-79
2022/01/21 06:05:06;;;;;;;1.35;0.38;;;;;;;;;;5062162;28;20111;-80
2022/01/21 06:07:32;;;;;;;0.10;0.10;;;;;;;;;;5062293;28;20048;-80
2022/01/21 06:09:58;;;;;;;0.57;0.40;;;;;;;;;;5046666;28;20102;-80
2022/01/21 06:12:24;;;;;;;0.10;0.10;;;;;;;;;;5047169;28;20557;-80
2022/01/21 06:14:51;;;;;;;0.10;0.10;;;;;;;;;;5051541;28;20458;-80
2022/01/21 06:17:17;;;;;;;0.10;0.10;;;;;;;;;;5056710;28;20040;-80
2022/01/21 06:19:44;;;;;;;0.20;0.20;;;;;;;;;;5063621;28;20632;-80
2022/01/21 06:22:12;;;;;;;0.20;0.20;;;;;;;;;;5066031;28;20060;-80
2022/01/21 06:24:38;;;;;;;0.10;0.10;;;;;;;;;;5052973;28;20021;-80
2022/01/21 06:27:05;;;;;;;0.20;0.20;;;;;;;;;;5054491;28;20060;-80
2022/01/21 06:29:31;;;;;;;0.52;0.50;;;;;;;;;;5054570;28;20923;-81
2022/01/21 06:31:57;;;;;;;0.10;0.10;;;;;;;;;;5057576;28;20780;-82
2022/01/21 06:34:23;;;;;;;0.10;0.10;;;;;;;;;;5073239;28;20039;-83
2022/01/21 06:36:50;;;;;;;0.10;0.10;;;;;;;;;;5066362;28;20328;-83
2022/01/21 06:39:16;;;;;;;9.63;0.50;;;;;;;;;;5065725;28;20559;-81
2022/01/21 06:41:44;;;;;;;0.10;0.10;;;;;;;;;;5057974;28;20028;-81
2022/01/21 06:44:10;;;;;;;0.30;0.30;;;;;;;;;;5071154;28;20035;-83
2022/01/21 06:46:36;;;;;;;0.60;0.60;;;;;;;;;;5052959;28;20032;-81
2022/01/21 06:49:02;;;;;;;0.17;0.17;;;;;;;;;;5066693;28;20039;-81
2022/01/21 06:51:28;;;;;;;0.37;0.27;;;;;;;;;;5057197;28;20094;-83
2022/01/21 06:53:55;;;;;;;0.10;0.10;;;;;;;;;;5065865;28;20607;-82
2022/01/21 06:56:21;;;;;;;0.32;0.32;;;;;;;;;;5060364;28;20128;-82
2022/01/21 06:58:47;;;;;;;0.50;0.37;;;;;;;;;;5065385;28;20032;-83
2022/01/21 07:01:13;;;;;;;0.10;0.10;;;;;;;;;;5065450;28;20044;-82
2022/01/21 07:03:39;;;;;;;0.50;0.50;;;;;;;;;;5064061;28;20020;-83
2022/01/21 07:06:05;;;;;;;0.30;0.30;;;;;;;;;;5054470;28;20318;-83
2022/01/21 07:08:34;;;;;;;0.20;0.20;;;;;;;;;;5065680;28;20325;-83
2022/01/21 07:11:00;;;;;;;0.10;0.10;;;;;;;;;;5062898;28;20040;-82
2022/01/21 07:13:26;;;;;;;0.10;0.10;;;;;;;;;;5052796;28;20024;-83
2022/01/21 07:15:52;;;;;;;0.40;0.25;;;;;;;;;;5049414;28;20033;-83
2022/01/21 07:18:18;;;;;;;0.20;0.20;;;;;;;;;;5052339;28;20090;-84
2022/01/21 07:20:44;;;;;;;0.30;0.30;;;;;;;;;;5074577;28;20299;-82
2022/01/21 07:23:10;;;;;;;0.50;0.50;;;;;;;;;;5063027;28;20025;-82
2022/01/21 07:25:37;;;;;;;0.10;0.10;;;;;;;;;;5065345;28;20107;-82
2022/01/21 07:28:04;;;;;;;;;;;;;;;;;;5047531;28;20040;-81
2022/01/21 07:30:31;;;;;;;0.10;0.10;;;;;;;;;;5045466;28;19913;-79
2022/01/21 07:32:57;;;;;;;0.10;0.10;;;;;;;;;;5062904;28;20522;-83
2022/01/21 07:35:23;;;;;;;0.10;0.10;;;;;;;;;;5065015;28;20055;-82
2022/01/21 07:37:49;;;;;;;0.17;0.17;;;;;;;;;;5065981;28;20028;-81
2022/01/21 07:40:15;;;;;;;4.90;3.05;;;;;;;;;;5062569;28;20060;-86
2022/01/21 07:42:41;;;;;;;0.10;0.10;;;;;;;;;;5062162;28;20350;-86
2022/01/21 07:45:07;;;;;;;0.10;0.10;;;;;;;;;;5053681;28;20126;-86
2022/01/21 07:47:33;;;;;;;0.10;0.10;;;;;;;;;;5073395;28;20419;-86
2022/01/21 07:49:59;;;;;;;0.32;0.32;;;;;;;;;;5054050;28;20111;-86
2022/01/21 07:52:25;;;;;;;9.17;1.70;;;;;;;;;;5052057;28;20032;-86
2022/01/21 07:54:51;;;;;;;0.10;0.10;;;;;;;;;;5065428;28;20592;-87
2022/01/21 07:57:17;;;;;;;0.10;0.10;;;;;;;;;;5064175;28;20051;-87
2022/01/21 07:59:43;;;;;;;0.60;0.57;;;;;;;;;;5056491;28;20036;-86
2022/01/21 08:02:09;;;;;;;0.10;0.10;;;;;;;;;;5053639;28;20358;-86
2022/01/21 08:04:36;;;;;;;0.10;0.10;;;;;;;;;;5053178;28;20028;-87
2022/01/21 08:07:02;;;;;;;0.10;0.10;;;;;;;;;;5047024;28;20032;-86
2022/01/21 08:09:28;;;;;;;0.20;0.20;;;;;;;;;;5065476;28;20623;-86
2022/01/21 08:11:54;;;;;;;0.10;0.10;;;;;;;;;;5064378;28;20060;-86
2022/01/21 08:14:21;;;;;;;0.10;0.10;;;;;;;;;;5064637;28;20043;-86
2022/01/21 08:16:47;;;;;;;0.03;0.03;;;;;;;;;;5059658;28;20100;-87
2022/01/21 08:19:13;;;;;;;0.10;0.10;;;;;;;;;;5049573;28;20068;-86
2022/01/21 08:21:40;;;;;;;0.10;0.10;;;;;;;;;;5064786;28;20020;-87
2022/01/21 08:24:07;;;;;;;0.00;0.00;;;;;;;;;;5065915;28;20517;-87
2022/01/21 08:26:35;;;;;;;0.10;0.10;;;;;;;;;;5064370;28;20757;-86
2022/01/21 08:29:02;;;;;;;0.10;0.10;;;;;;;;;;5056772;28;20029;-86
2022/01/21 08:31:28;;;;;;;0.10;0.10;;;;;;;;;;5051456;28;20029;-86
2022/01/21 08:33:54;;;;;;;0.00;0.00;;;;;;;;;;5048200;28;20028;-86
2022/01/21 08:36:21;;;;;;;0.13;0.13;;;;;;;;;;5049392;28;20067;-86
2022/01/21 08:38:47;;;;;;;0.10;0.10;;;;;;;;;;5061726;28;20032;-87
2022/01/21 08:41:13;;;;;;;1.08;0.82;;;;;;;;;;5058964;28;20072;-86
2022/01/21 08:43:40;;;;;;;0.20;0.20;;;;;;;;;;5051729;28;20535;-86
2022/01/21 08:46:06;;;;;;;0.00;0.00;;;;;;;;;;5047551;28;20028;-86
2022/01/21 08:48:32;;;;;;;0.10;0.10;;;;;;;;;;5064269;28;20108;-86
2022/01/21 08:51:01;;;;;;;0.20;0.20;;;;;;;;;;5052556;28;20227;-87
2022/01/21 08:53:36;;;;;;;0.10;0.10;;;;;;;;;;5067353;28;20460;-86
2022/01/21 08:56:04;;;;;;;0.10;0.10;;;;;;;;;;5053594;28;20060;-86
2022/01/21 08:58:30;;;;;;;0.10;0.10;;;;;;;;;;5063115;28;20476;-86
2022/01/21 09:00:56;;;;;;;0.55;0.20;;;;;;;;;;5045676;28;20854;-86
2022/01/21 09:03:22;;;;;;;0.10;0.10;;;;;;;;;;5049733;28;20029;-87
2022/01/21 09:05:49;;;;;;;0.10;0.10;;;;;;;;;;5061359;28;20031;-87
2022/01/21 09:08:16;;;;;;;0.00;0.00;;;;;;;;;;5063163;28;20074;-86
2022/01/21 09:10:42;;;;;;;0.10;0.10;;;;;;;;;;5062881;28;20025;-87
2022/01/21 09:13:08;;;;;;;0.20;0.20;;;;;;;;;;5047714;28;20036;-87
2022/01/21 09:15:35;;;;;;;0.10;0.10;;;;;;;;;;5064053;28;20543;-86
2022/01/21 09:18:04;;;;;;;0.10;0.10;;;;;;;;;;5048020;28;20561;-87
2022/01/21 09:20:31;;;;;;;0.10;0.10;;;;;;;;;;5051674;28;20036;-86
2022/01/21 09:22:57;;;;;;;0.20;0.20;;;;;;;;;;5066137;28;20040;-86
2022/01/21 09:25:23;;;;;;;0.20;0.20;;;;;;;;;;5049706;28;20032;-87
2022/01/21 09:27:49;;;;;;;0.10;0.10;;;;;;;;;;5046936;28;20053;-86
2022/01/21 09:30:15;;;;;;;0.53;0.47;;;;;;;;;;5050370;28;20089;-86
2022/01/21 09:32:42;;;;;;;0.10;0.10;;;;;;;;;;5060439;28;20151;-87
2022/01/21 09:35:10;;;;;;;13.52;0.52;;;;;;;;;;5063288;28;20746;-86
2022/01/21 09:37:36;;;;;;;0.47;0.25;;;;;;;;;;5063447;28;20108;-86
2022/01/21 09:40:02;;;;;;;0.05;0.05;;;;;;;;;;5045735;28;20127;-87
2022/01/21 09:42:31;;;;;;;0.05;0.05;;;;;;;;;;5063755;28;20028;-86
2022/01/21 09:44:58;;;;;;;0.80;0.80;;;;;;;;;;5062899;28;20125;-86
2022/01/21 09:47:24;;;;;;;0.00;0.00;;;;;;;;;;5062929;28;20032;-86
2022/01/21 09:49:50;;;;;;;0.00;0.00;;;;;;;;;;5062819;28;20456;-86
2022/01/21 09:52:18;;;;;;;0.13;0.13;;;;;;;;;;5063036;28;20021;-86
2022/01/21 09:54:48;;;;;;;0.10;0.10;;;;;;;;;;5062383;28;20202;-85
2022/01/21 09:57:32;;;;;;;0.00;0.00;;;;;;;;;;5063613;28;20032;-86
2022/01/21 09:59:59;;;;;;;0.28;0.28;;;;;;;;;;5047892;28;20033;-86
2022/01/21 10:02:29;;;;;;;0.00;0.00;;;;;;;;;;5070356;28;20220;-86
2022/01/21 10:04:56;;;;;;;0.15;0.15;;;;;;;;;;5052439;28;20528;-86
2022/01/21 10:07:22;;;;;;;0.30;0.25;;;;;;;;;;5062760;28;20024;-86
2022/01/21 10:09:50;;;;;;;1.55;1.45;;;;;;;;;;5063086;28;20029;-86
2022/01/21 10:12:16;;;;;;;0.10;0.10;;;;;;;;;;5063632;28;20021;-87
2022/01/21 10:14:43;;;;;;;0.10;0.10;;;;;;;;;;5062531;28;20044;-85
2022/01/21 10:17:10;;;;;;;0.20;0.20;;;;;;;;;;5058710;28;20056;-86
2022/01/21 10:19:36;;;;;;;0.10;0.10;;;;;;;;;;5062761;28;20124;-86
2022/01/21 10:22:06;;;;;;;0.10;0.10;;;;;;;;;;5044270;28;20036;-86
2022/01/21 10:24:34;;;;;;;0.10;0.10;;;;;;;;;;5061385;28;20052;-86
2022/01/21 10:27:00;;;;;;;0.00;0.00;;;;;;;;;;5062202;28;20067;-87
2022/01/21 10:29:37;;;;;;;0.20;0.20;;;;;;;;;;5051541;28;20037;-86
2022/01/21 10:32:03;;;;;;;0.17;0.13;;;;;;;;;;5051032;28;20025;-86
2022/01/21 10:34:40;;;;;;;0.08;0.08;;;;;;;;;;5064968;28;20032;-86
2022/01/21 10:37:23;;;;;;;0.08;0.08;;;;;;;;;;5061706;28;20029;-86
2022/01/21 10:40:04;;;;;;;0.20;0.20;;;;;;;;;;5060096;28;20043;-87
2022/01/21 10:42:30;;;;;;;0.13;0.13;;;;;;;;;;5047172;28;20115;-86
2022/01/21 10:44:56;;;;;;;0.10;0.10;;;;;;;;;;5073253;28;20775;-86
2022/01/21 10:47:27;;;;;;;0.10;0.10;;;;;;;;;;5056501;28;20032;-87
2022/01/21 10:50:05;;;;;;;0.20;0.20;;;;;;;;;;5059893;28;20036;-86
2022/01/21 10:52:33;;;;;;;0.10;0.10;;;;;;;;;;5064637;28;20024;-86
2022/01/21 10:54:59;;;;;;;0.10;0.10;;;;;;;;;;5061847;28;20107;-86
2022/01/21 10:57:27;;;;;;;0.20;0.20;;;;;;;;;;5048147;28;20509;-87
2022/01/21 11:00:00;;;;;;;0.08;0.08;;;;;;;;;;5060747;28;20037;-86
2022/01/21 11:02:35;;;;;;;0.15;0.15;;;;;;;;;;5061912;28;20029;-86
2022/01/21 11:05:05;;;;;;;0.10;0.10;;;;;;;;;;5062087;28;20028;-86
2022/01/21 11:07:44;;;;;;;0.35;0.20;;;;;;;;;;5065282;28;20497;-86
2022/01/21 11:10:30;;;;;;;0.70;0.70;;;;;;;;;;5047081;28;20059;-86
2022/01/21 11:12:56;;;;;;;0.15;0.15;;;;;;;;;;5049111;28;20029;-86
2022/01/21 11:15:22;;;;;;;0.10;0.10;;;;;;;;;;5066125;28;20210;-86
2022/01/21 11:18:00;;;;;;;0.10;0.10;;;;;;;;;;5065648;28;20161;-86
2022/01/21 11:20:35;;;;;;;0.73;0.70;;;;;;;;;;5065529;28;20036;-86
2022/01/21 11:23:01;;;;;;;0.08;0.08;;;;;;;;;;5065224;28;20024;-86
2022/01/21 11:25:43;;;;;;;1.13;1.10;;;;;;;;;;5065395;28;20056;-87
2022/01/21 11:28:10;;;;;;;0.20;0.20;;;;;;;;;;5047550;28;20492;-86
2022/01/21 11:30:36;;;;;;;8.85;0.50;;;;;;;;;;5065989;28;20025;-86
2022/01/21 11:33:03;;;;;;;0.10;0.10;;;;;;;;;;5053650;28;20044;-87
2022/01/21 11:35:30;;;;;;;0.10;0.10;;;;;;;;;;5072519;28;20033;-86
2022/01/21 11:37:56;;;;;;;0.00;0.00;;;;;;;;;;5054284;28;20032;-86
2022/01/21 11:40:23;;;;;;;0.10;0.10;;;;;;;;;;5064846;28;20033;-87
2022/01/21 11:42:50;;;;;;;0.00;0.00;;;;;;;;;;5063835;28;20302;-86
2022/01/21 11:45:43;;;;;;;0.03;0.03;;;;;;;;;;5051438;28;20511;-86
2022/01/21 11:50:39;;;;;;;1.17;1.08;;;;;;;;;;5065116;28;20561;-87
2022/01/21 11:53:05;;;;;;;0.10;0.10;;;;;;;;;;5061526;28;20107;-86
2022/01/21 11:55:31;;;;;;;0.10;0.10;;;;;;;;;;5067921;28;20119;-86
2022/01/21 11:58:30;;;;;;;0.10;0.10;;;;;;;;;;5063627;28;20090;-86
2022/01/21 12:00:56;;;;;;;0.10;0.10;;;;;;;;;;5002145;28;20054;-87
2022/01/21 12:03:23;;;;;;;0.00;0.00;;;;;;;;;;5003003;28;20089;-87
2022/01/21 12:05:50;;;;;;;0.10;0.10;;;;;;;;;;5002495;28;20052;-86
2022/01/21 12:08:36;;;;;;;0.43;0.43;;;;;;;;;;5002423;28;20042;-86
2022/01/21 12:11:22;;;;;;;0.00;0.00;;;;;;;;;;5002522;28;20037;-87
2022/01/21 12:13:48;;;;;;;0.10;0.10;;;;;;;;;;5002509;28;20041;-86
2022/01/21 12:16:23;;;;;;;0.10;0.10;;;;;;;;;;5002566;28;20541;-87
2022/01/21 12:19:20;;;;;;;0.00;0.00;;;;;;;;;;5002368;28;20156;-86
2022/01/21 12:21:48;;;;;;;;;;;;;;;;;;5000372;28;20042;-87
2022/01/21 12:24:16;;;;;;;0.00;0.00;;;;;;;;;;5002581;28;19983;-86
2022/01/21 12:26:59;;;;;;;0.00;0.00;;;;;;;;;;4993761;28;20833;-86
2022/01/21 12:29:26;;;;;;;0.60;0.45;;;;;;;;;;4997380;28;20164;-86
2022/01/21 12:31:58;;;;;;;0.38;0.38;;;;;;;;;;5002581;28;20038;-86
2022/01/21 12:34:24;;;;;;;0.00;0.00;;;;;;;;;;5002052;28;20066;-85
2022/01/21 12:36:58;;;;;;;0.03;0.03;;;;;;;;;;5032714;28;20498;-87
2022/01/21 12:39:40;;;;;;;0.00;0.00;;;;;;;;;;5048184;28;20033;-87
2022/01/21 12:42:25;;;;;;;0.15;0.15;;;;;;;;;;5064505;28;20490;-87
2022/01/21 12:44:52;;;;;;;0.38;0.38;;;;;;;;;;5055069;28;20032;-86
2022/01/21 12:47:32;;;;;;;1.30;0.43;;;;;;;;;;5058156;28;20044;-86
2022/01/21 12:50:05;;;;;;;0.10;0.10;;;;;;;;;;5057502;28;20341;-86
2022/01/21 12:52:55;;;;;;;0.55;0.55;;;;;;;;;;5066673;28;20032;-86
2022/01/21 12:58:11;;;;;;;0.50;0.50;;;;;;;;;;5049091;28;20634;-87
2022/01/21 13:00:38;;;;;;;0.10;0.10;;;;;;;;;;5047967;28;20045;-87
2022/01/21 13:03:05;;;;;;;0.10;0.10;;;;;;;;;;5063206;28;20033;-87
2022/01/21 13:05:39;;;;;;;0.15;0.15;;;;;;;;;;5052905;28;20508;-86
2022/01/21 13:08:05;;;;;;;0.10;0.10;;;;;;;;;;5068203;28;20033;-86
2022/01/21 13:10:31;;;;;;;0.00;0.00;;;;;;;;;;5051606;28;20027;-86
2022/01/21 13:15:37;;;;;;;0.10;0.10;;;;;;;;;;5049983;28;20128;-86
2022/01/21 13:18:03;;;;;;;0.00;0.00;;;;;;;;;;5052269;28;20035;-86
2022/01/21 13:20:30;;;;;;;0.10;0.10;;;;;;;;;;5058956;28;20086;-86
2022/01/21 13:22:56;;;;;;;;;;;;;;;;;;5064136;28;20606;-87
2022/01/21 13:25:22;;;;;;;0.10;0.10;;;;;;;;;;5063948;28;19958;-86
2022/01/21 13:27:53;;;;;;;0.15;0.15;;;;;;;;;;5062217;28;20060;-86
2022/01/21 13:30:21;;;;;;;0.00;0.00;;;;;;;;;;5048621;28;20835;-86
2022/01/21 13:32:48;;;;;;;0.00;0.00;;;;;;;;;;5073446;28;20078;-86
2022/01/21 13:35:14;;;;;;;1.98;1.40;;;;;;;;;;5052421;28;20044;-86
2022/01/21 13:37:41;;;;;;;0.10;0.10;;;;;;;;;;5052513;28;20666;-87
2022/01/21 13:40:08;;;;;;;0.10;0.10;;;;;;;;;;5061233;28;20497;-86
2022/01/21 13:42:35;;;;;;;0.00;0.00;;;;;;;;;;5059996;28;20027;-86
2022/01/21 13:45:04;;;;;;;0.10;0.10;;;;;;;;;;5047821;28;20032;-86
2022/01/21 13:47:33;;;;;;;0.13;0.13;;;;;;;;;;5052002;28;20083;-87
2022/01/21 13:50:01;;;;;;;0.00;0.00;;;;;;;;;;5054618;28;20749;-86
2022/01/21 13:52:34;;;;;;;0.10;0.10;;;;;;;;;;5063542;28;20108;-86
2022/01/21 13:55:00;;;;;;;0.05;0.05;;;;;;;;;;5047357;28;20524;-86
2022/01/21 13:57:27;;;;;;;0.13;0.13;;;;;;;;;;5063826;28;20440;-87
2022/01/21 13:59:53;;;;;;;0.00;0.00;;;;;;;;;;5048483;28;20064;-86
2022/01/21 14:02:19;;;;;;;0.10;0.10;;;;;;;;;;5057079;28;20059;-87
2022/01/21 14:05:01;;;;;;;0.00;0.00;;;;;;;;;;5063284;28;20024;-86
2022/01/21 14:07:35;;;;;;;0.00;0.00;;;;;;;;;;5063292;28;20463;-85
2022/01/21 14:10:08;;;;;;;0.90;0.73;;;;;;;;;;5063111;28;20107;-86
2022/01/21 14:12:34;;;;;;;1.45;0.55;;;;;;;;;;5048072;28;20521;-86
2022/01/21 14:15:00;;;;;;;0.03;0.03;;;;;;;;;;5062789;28;20056;-86
2022/01/21 14:17:26;;;;;;;0.03;0.03;;;;;;;;;;5063014;28;20036;-86
2022/01/21 14:19:59;;;;;;;0.17;0.17;;;;;;;;;;5063059;28;20037;-86
2022/01/21 14:22:25;;;;;;;0.10;0.10;;;;;;;;;;5063316;28;20028;-86
2022/01/21 14:24:53;;;;;;;0.00;0.00;;;;;;;;;;5045778;28;20029;-86
2022/01/21 14:27:23;;;;;;;0.00;0.00;;;;;;;;;;5048236;28;20160;-86
2022/01/21 14:29:55;;;;;;;1.13;0.38;;;;;;;;;;5061441;28;20059;-86
2022/01/21 14:32:26;;;;;;;0.10;0.10;;;;;;;;;;5053377;28;20551;-86
2022/01/21 14:35:04;;;;;;;0.00;0.00;;;;;;;;;;5068656;28;20028;-86
2022/01/21 14:37:30;;;;;;;0.70;0.65;;;;;;;;;;5063041;28;20040;-86
2022/01/21 14:40:00;;;;;;;0.05;0.05;;;;;;;;;;5047215;28;20033;-87
2022/01/21 14:42:27;;;;;;;0.10;0.10;;;;;;;;;;5053193;28;20025;-86
2022/01/21 14:44:53;;;;;;;;;;;;;;;;;;5065519;28;20035;-86
2022/01/21 14:47:19;;;;;;;0.00;0.00;;;;;;;;;;5057555;28;19913;-86
2022/01/21 14:49:49;;;;;;;0.00;0.00;;;;;;;;;;5055201;28;20029;-87
2022/01/21 14:54:54;;;;;;;0.13;0.13;;;;;;;;;;5066037;28;20047;-87
2022/01/21 14:57:31;;;;;;;0.00;0.00;;;;;;;;;;5051291;28;20025;-86
2022/01/21 15:00:02;;;;;;;0.00;0.00;;;;;;;;;;5054726;28;20072;-86
2022/01/21 15:02:36;;;;;;;1.30;0.73;;;;;;;;;;5054634;28;20037;-86
2022/01/21 15:05:04;;;;;;;0.10;0.10;;;;;;;;;;5072734;28;20093;-86
2022/01/21 15:07:31;;;;;;;0.17;0.17;;;;;;;;;;5065979;28;20028;-86
2022/01/21 15:10:00;;;;;;;2.35;0.95;;;;;;;;;;5064366;28;20032;-86
2022/01/21 15:15:33;;;;;;;0.00;0.00;;;;;;;;;;5065829;28;20590;-86
2022/01/21 15:18:00;;;;;;;0.00;0.00;;;;;;;;;;5054833;28;20504;-86
2022/01/21 15:20:37;;;;;;;0.00;0.00;;;;;;;;;;5072443;28;20041;-86
2022/01/21 15:23:04;;;;;;;0.10;0.10;;;;;;;;;;5057099;28;20032;-86
2022/01/21 15:25:30;;;;;;;0.13;0.13;;;;;;;;;;5065389;28;20794;-86
2022/01/21 15:27:56;;;;;;;0.10;0.10;;;;;;;;;;5048894;28;20053;-87
2022/01/21 15:30:23;;;;;;;0.35;0.20;;;;;;;;;;5051955;28;20146;-86
2022/01/21 15:32:49;;;;;;;0.20;0.20;;;;;;;;;;5053834;28;20488;-86
2022/01/21 15:35:15;;;;;;;0.15;0.15;;;;;;;;;;5058404;28;20111;-86
2022/01/21 15:37:41;;;;;;;0.20;0.20;;;;;;;;;;5065072;28;20033;-86
2022/01/21 15:40:09;;;;;;;0.10;0.10;;;;;;;;;;5049192;28;20619;-86
2022/01/21 15:42:35;;;;;;;0.10;0.10;;;;;;;;;;5061452;28;20501;-86
2022/01/21 15:45:01;;;;;;;4.47;0.30;;;;;;;;;;5053537;28;20037;-86
2022/01/21 15:47:28;;;;;;;0.22;0.05;;;;;;;;;;5059532;28;20279;-86
2022/01/21 15:49:54;;;;;;;2.45;1.27;;;;;;;;;;5063048;28;20020;-86
2022/01/21 15:52:20;;;;;;;0.00;0.00;;;;;;;;;;5064171;28;20039;-86
2022/01/21 15:54:47;;;;;;;0.10;0.10;;;;;;;;;;5048746;28;20506;-86
2022/01/21 15:57:13;;;;;;;0.20;0.20;;;;;;;;;;5052197;28;20036;-86